Tropical Cyclones
[Index]
Main Index Home Page Stock Weather Photos Extreme Storms Discussion Storm News and Storm Chasing Reports Tropical Cyclones / Hurricanes / Typhoons Weather Data and Links Wild Fires / Bushfires Weather Observation Techniques Weather Picture Catalogue Tornado Pictures and Reports Stock Video Footage and DVDs for sale
Season 1965-1966 Tropical Cyclone AMANDA Track Map
Season 1965-1966 Summaries: [BoM-AU] [JTWC-AU] [JTWC-SIO] [JTWC-SPAC] [JTWC-SH]
<<- Previous TC | BoM 1965-1966 Season | Next TC ->>

click for intensity scale information  Lat/long Grid: Show Hide

 Date Labels: Show Hide

Bureau of Meteorology Tropical Cyclone Data

Name: AMANDA
Number: 400 / 196566_02

20 Dec 1965 23:00 UTC to 02 Jan 1966 01:00 UTC

    date/time    lat    long    hPa   cat  kts
1965-12-20 23   10.0   134.0   1002                     
1965-12-21 05   10.0   135.0   1002                     
1965-12-21 11   11.0   134.3   1002                     
1965-12-21 18   11.0   136.0   1002                     
1965-12-21 23   11.0   136.9   1002                     
1965-12-22 06   10.5   138.5   1000                     
1965-12-22 12   10.5   138.0   1000                     
1965-12-22 13   10.2   138.3   1001                     
1965-12-22 18   11.0   139.0   1000                     
1965-12-22 23   11.0   138.8   1000                     
1965-12-23 06   11.3   139.0   1000                     
1965-12-23 12   11.0   139.0   1000                     
1965-12-23 18   11.0   138.5   1000                     
1965-12-23 23   11.3   138.2   1000                     
1965-12-24 06   11.7   138.1   1000                     
1965-12-24 09   12.0   137.7                            
1965-12-24 12   11.5   137.8   1000                     
1965-12-24 18   11.3   137.4   1000                     
1965-12-25 00   11.0   137.0   1000                     
1965-12-25 06   10.7   136.8   1000                     
1965-12-25 08   10.0   137.4                            
1965-12-25 11   10.2   138.0                            
1965-12-25 15   10.5   138.0                            
1965-12-25 18   10.2   137.5    999                     
1965-12-25 23   10.3   137.0    999                     
1965-12-26 06   11.0   135.8    998                     
1965-12-26 12   11.0   135.3    998                     
1965-12-26 15   11.0   135.8                            
1965-12-26 18   11.0   135.0    998                     
1965-12-26 23   10.7   135.3    998                     
1965-12-27 06   11.3   134.8    998                     
1965-12-27 12   11.8   134.3    998                     
1965-12-27 14   11.8   134.1                            
1965-12-27 18   11.5   134.0    997                     
1965-12-28 00   11.2   133.4    997                     
1965-12-28 06   11.2   132.7    996                     
1965-12-28 08   11.6   132.3    997                     
1965-12-28 12   11.7   132.2    996                     
1965-12-28 15   12.2   132.0    997                     
1965-12-28 18   12.3   131.8    997                     
1965-12-29 00   12.8   131.2    997                     
1965-12-29 06   13.0   131.0    997                     
1965-12-29 12   13.4   130.5    997                     
1965-12-29 15   13.7   129.8    997                     
1965-12-29 18   13.8   130.0    997                     
1965-12-30 00   14.2   129.4    997                     
1965-12-30 06   14.7   129.0    996                     
1965-12-30 09   14.8   128.6    990    1                
1965-12-30 12   15.3   128.2    995    1                
1965-12-30 19   15.0   127.0                            
1965-12-31 01   15.3   124.7   1000                     
1965-12-31 03   15.7   124.3                            
1965-12-31 11   16.7   123.0                            
1965-12-31 17   17.3   122.2                            
1966-01-01 01   18.4   121.1    993    1                
1966-01-01 07   19.7   120.7    990    1                
1966-01-01 13   21.2   120.4    998                     
1966-01-02 01   24.7   120.0   1000                     
Winds are 10-min average.

Tropical cyclone tracks developed by Michael Bath using data from the Bureau of Meteorology and Google Maps.


[Australian Severe Weather index] [Copyright Notice] [Email Contacts] [Search This Site] [Privacy Policy]
Document: tropical_cyclone_amanda.htm Updated: 30 May 2013